sensor_id;sensor_type;location;lat;lon;timestamp;P1;durP1;ratioP1;P2;durP2;ratioP2
19940;SDS011;10132;50.864;5.176;2023-07-28T00:01:05;2.10;;;1.90;;
19940;SDS011;10132;50.864;5.176;2023-07-28T00:03:07;2.85;;;2.00;;
19940;SDS011;10132;50.864;5.176;2023-07-28T00:05:10;2.22;;;2.00;;
19940;SDS011;10132;50.864;5.176;2023-07-28T00:07:12;4.22;;;1.70;;
19940;SDS011;10132;50.864;5.176;2023-07-28T00:09:14;2.33;;;2.13;;
19940;SDS011;10132;50.864;5.176;2023-07-28T00:11:16;4.25;;;1.95;;
19940;SDS011;10132;50.864;5.176;2023-07-28T00:13:18;2.30;;;1.95;;
19940;SDS011;10132;50.864;5.176;2023-07-28T00:15:20;11.15;;;3.08;;
19940;SDS011;10132;50.864;5.176;2023-07-28T00:17:23;2.83;;;2.10;;
19940;SDS011;10132;50.864;5.176;2023-07-28T00:19:24;3.20;;;2.08;;
19940;SDS011;10132;50.864;5.176;2023-07-28T00:21:28;2.78;;;2.20;;
19940;SDS011;10132;50.864;5.176;2023-07-28T00:23:30;3.72;;;2.03;;
19940;SDS011;10132;50.864;5.176;2023-07-28T00:25:32;3.60;;;1.98;;
19940;SDS011;10132;50.864;5.176;2023-07-28T00:27:34;2.90;;;2.30;;
19940;SDS011;10132;50.864;5.176;2023-07-28T00:29:36;2.53;;;2.25;;
19940;SDS011;10132;50.864;5.176;2023-07-28T00:31:38;4.75;;;2.45;;
19940;SDS011;10132;50.864;5.176;2023-07-28T00:33:40;2.67;;;2.47;;
19940;SDS011;10132;50.864;5.176;2023-07-28T00:35:42;3.25;;;2.42;;
19940;SDS011;10132;50.864;5.176;2023-07-28T00:37:45;3.05;;;2.40;;
19940;SDS011;10132;50.864;5.176;2023-07-28T00:39:47;3.50;;;2.92;;
19940;SDS011;10132;50.864;5.176;2023-07-28T00:41:48;3.30;;;2.88;;
19940;SDS011;10132;50.864;5.176;2023-07-28T00:43:50;4.53;;;3.30;;
19940;SDS011;10132;50.864;5.176;2023-07-28T00:45:51;5.07;;;3.17;;
19940;SDS011;10132;50.864;5.176;2023-07-28T00:47:54;5.97;;;3.17;;
19940;SDS011;10132;50.864;5.176;2023-07-28T00:49:57;4.32;;;3.10;;
19940;SDS011;10132;50.864;5.176;2023-07-28T00:52:00;5.00;;;3.33;;
19940;SDS011;10132;50.864;5.176;2023-07-28T00:54:03;5.45;;;3.05;;
19940;SDS011;10132;50.864;5.176;2023-07-28T00:56:06;3.30;;;3.00;;
19940;SDS011;10132;50.864;5.176;2023-07-28T00:58:09;4.70;;;3.45;;
19940;SDS011;10132;50.864;5.176;2023-07-28T01:00:10;6.18;;;3.20;;
19940;SDS011;10132;50.864;5.176;2023-07-28T01:02:13;4.53;;;3.40;;
19940;SDS011;10132;50.864;5.176;2023-07-28T01:04:15;4.65;;;3.20;;
19940;SDS011;10132;50.864;5.176;2023-07-28T01:06:18;5.20;;;3.22;;
19940;SDS011;10132;50.864;5.176;2023-07-28T01:08:30;5.53;;;2.92;;
19940;SDS011;10132;50.864;5.176;2023-07-28T01:10:39;3.20;;;2.90;;
19940;SDS011;10132;50.864;5.176;2023-07-28T01:12:41;3.90;;;3.00;;
19940;SDS011;10132;50.864;5.176;2023-07-28T01:14:43;4.40;;;3.20;;
19940;SDS011;10132;50.864;5.176;2023-07-28T01:16:45;3.47;;;3.00;;
19940;SDS011;10132;50.864;5.176;2023-07-28T01:18:47;7.07;;;3.40;;
19940;SDS011;10132;50.864;5.176;2023-07-28T01:20:50;5.07;;;3.13;;
19940;SDS011;10132;50.864;5.176;2023-07-28T01:23:01;5.30;;;3.15;;
19940;SDS011;10132;50.864;5.176;2023-07-28T01:25:11;5.60;;;3.22;;
19940;SDS011;10132;50.864;5.176;2023-07-28T01:27:21;3.45;;;3.15;;
19940;SDS011;10132;50.864;5.176;2023-07-28T01:29:24;5.03;;;3.20;;
19940;SDS011;10132;50.864;5.176;2023-07-28T01:31:26;4.88;;;3.10;;
19940;SDS011;10132;50.864;5.176;2023-07-28T01:33:29;4.60;;;2.90;;
19940;SDS011;10132;50.864;5.176;2023-07-28T01:35:31;5.25;;;3.35;;
19940;SDS011;10132;50.864;5.176;2023-07-28T01:37:33;4.55;;;2.90;;
19940;SDS011;10132;50.864;5.176;2023-07-28T01:39:36;4.63;;;3.10;;
19940;SDS011;10132;50.864;5.176;2023-07-28T01:41:38;3.70;;;3.08;;
19940;SDS011;10132;50.864;5.176;2023-07-28T01:43:44;6.65;;;3.10;;
19940;SDS011;10132;50.864;5.176;2023-07-28T01:45:46;3.75;;;3.05;;
19940;SDS011;10132;50.864;5.176;2023-07-28T01:47:48;6.03;;;2.65;;
19940;SDS011;10132;50.864;5.176;2023-07-28T01:49:50;4.28;;;3.10;;
19940;SDS011;10132;50.864;5.176;2023-07-28T01:51:52;3.72;;;3.10;;
19940;SDS011;10132;50.864;5.176;2023-07-28T01:53:54;4.38;;;3.05;;
19940;SDS011;10132;50.864;5.176;2023-07-28T01:55:56;5.05;;;2.92;;
19940;SDS011;10132;50.864;5.176;2023-07-28T01:58:01;6.03;;;2.88;;
19940;SDS011;10132;50.864;5.176;2023-07-28T02:00:05;4.60;;;2.95;;
19940;SDS011;10132;50.864;5.176;2023-07-28T02:02:08;3.83;;;2.97;;
19940;SDS011;10132;50.864;5.176;2023-07-28T02:04:10;3.88;;;3.47;;
19940;SDS011;10132;50.864;5.176;2023-07-28T02:06:12;6.15;;;2.95;;
19940;SDS011;10132;50.864;5.176;2023-07-28T02:08:14;4.32;;;3.30;;
19940;SDS011;10132;50.864;5.176;2023-07-28T02:10:15;4.22;;;3.05;;
19940;SDS011;10132;50.864;5.176;2023-07-28T02:12:17;5.10;;;3.00;;
19940;SDS011;10132;50.864;5.176;2023-07-28T02:14:19;5.00;;;3.22;;
19940;SDS011;10132;50.864;5.176;2023-07-28T02:16:22;3.53;;;3.22;;
19940;SDS011;10132;50.864;5.176;2023-07-28T02:18:24;4.32;;;3.28;;
19940;SDS011;10132;50.864;5.176;2023-07-28T02:20:26;5.25;;;3.63;;
19940;SDS011;10132;50.864;5.176;2023-07-28T02:22:28;4.88;;;3.85;;
19940;SDS011;10132;50.864;5.176;2023-07-28T02:24:29;6.47;;;3.50;;
19940;SDS011;10132;50.864;5.176;2023-07-28T02:26:31;3.83;;;3.42;;
19940;SDS011;10132;50.864;5.176;2023-07-28T02:28:33;4.35;;;3.17;;
19940;SDS011;10132;50.864;5.176;2023-07-28T02:30:36;5.30;;;3.33;;
19940;SDS011;10132;50.864;5.176;2023-07-28T02:32:39;6.60;;;3.78;;
19940;SDS011;10132;50.864;5.176;2023-07-28T02:34:41;6.10;;;3.92;;
19940;SDS011;10132;50.864;5.176;2023-07-28T02:36:43;6.78;;;4.10;;
19940;SDS011;10132;50.864;5.176;2023-07-28T02:38:45;4.35;;;3.80;;
19940;SDS011;10132;50.864;5.176;2023-07-28T02:40:47;4.57;;;4.18;;
19940;SDS011;10132;50.864;5.176;2023-07-28T02:42:49;4.75;;;4.20;;
19940;SDS011;10132;50.864;5.176;2023-07-28T02:44:53;4.30;;;3.90;;
19940;SDS011;10132;50.864;5.176;2023-07-28T02:46:55;7.00;;;4.22;;
19940;SDS011;10132;50.864;5.176;2023-07-28T02:48:58;5.45;;;4.00;;
19940;SDS011;10132;50.864;5.176;2023-07-28T02:50:59;5.53;;;3.90;;
19940;SDS011;10132;50.864;5.176;2023-07-28T02:53:01;6.10;;;4.10;;
19940;SDS011;10132;50.864;5.176;2023-07-28T02:55:03;6.28;;;4.18;;
19940;SDS011;10132;50.864;5.176;2023-07-28T02:57:05;7.55;;;4.97;;
19940;SDS011;10132;50.864;5.176;2023-07-28T02:59:07;7.47;;;4.60;;
19940;SDS011;10132;50.864;5.176;2023-07-28T03:01:08;6.40;;;5.13;;
19940;SDS011;10132;50.864;5.176;2023-07-28T03:03:10;6.90;;;4.75;;
19940;SDS011;10132;50.864;5.176;2023-07-28T03:05:14;10.45;;;6.35;;
19940;SDS011;10132;50.864;5.176;2023-07-28T03:07:15;8.40;;;5.07;;
19940;SDS011;10132;50.864;5.176;2023-07-28T03:09:17;9.23;;;5.80;;
19940;SDS011;10132;50.864;5.176;2023-07-28T03:11:19;7.55;;;5.32;;
19940;SDS011;10132;50.864;5.176;2023-07-28T03:13:21;8.43;;;4.80;;
19940;SDS011;10132;50.864;5.176;2023-07-28T03:15:23;7.20;;;5.90;;
19940;SDS011;10132;50.864;5.176;2023-07-28T03:17:25;11.00;;;5.90;;
19940;SDS011;10132;50.864;5.176;2023-07-28T03:19:27;7.18;;;6.10;;
19940;SDS011;10132;50.864;5.176;2023-07-28T03:21:30;6.78;;;5.38;;
19940;SDS011;10132;50.864;5.176;2023-07-28T03:23:32;8.30;;;6.07;;
19940;SDS011;10132;50.864;5.176;2023-07-28T03:25:34;7.20;;;6.25;;
19940;SDS011;10132;50.864;5.176;2023-07-28T03:27:36;10.30;;;6.53;;
19940;SDS011;10132;50.864;5.176;2023-07-28T03:29:38;8.52;;;6.20;;
19940;SDS011;10132;50.864;5.176;2023-07-28T03:31:40;11.05;;;6.40;;
19940;SDS011;10132;50.864;5.176;2023-07-28T03:33:43;9.48;;;6.78;;
19940;SDS011;10132;50.864;5.176;2023-07-28T03:35:45;7.53;;;6.22;;
19940;SDS011;10132;50.864;5.176;2023-07-28T03:37:48;8.88;;;7.05;;
19940;SDS011;10132;50.864;5.176;2023-07-28T03:39:50;9.40;;;6.18;;
19940;SDS011;10132;50.864;5.176;2023-07-28T03:41:52;8.82;;;6.60;;
19940;SDS011;10132;50.864;5.176;2023-07-28T03:43:53;10.02;;;6.72;;
19940;SDS011;10132;50.864;5.176;2023-07-28T03:45:56;10.15;;;6.43;;
19940;SDS011;10132;50.864;5.176;2023-07-28T03:47:56;8.23;;;6.20;;
19940;SDS011;10132;50.864;5.176;2023-07-28T03:49:58;7.57;;;6.03;;
19940;SDS011;10132;50.864;5.176;2023-07-28T03:52:00;8.65;;;5.90;;
19940;SDS011;10132;50.864;5.176;2023-07-28T03:54:04;8.57;;;6.07;;
19940;SDS011;10132;50.864;5.176;2023-07-28T03:56:07;8.45;;;6.43;;
19940;SDS011;10132;50.864;5.176;2023-07-28T03:58:10;9.05;;;6.65;;
19940;SDS011;10132;50.864;5.176;2023-07-28T04:00:12;7.03;;;6.05;;
19940;SDS011;10132;50.864;5.176;2023-07-28T04:02:15;7.50;;;6.13;;
19940;SDS011;10132;50.864;5.176;2023-07-28T04:04:17;7.75;;;5.40;;
19940;SDS011;10132;50.864;5.176;2023-07-28T04:06:19;8.45;;;5.75;;
19940;SDS011;10132;50.864;5.176;2023-07-28T04:08:40;6.68;;;5.57;;
19940;SDS011;10132;50.864;5.176;2023-07-28T04:10:43;6.32;;;5.32;;
19940;SDS011;10132;50.864;5.176;2023-07-28T04:12:45;11.02;;;5.63;;
19940;SDS011;10132;50.864;5.176;2023-07-28T04:14:47;5.95;;;4.85;;
19940;SDS011;10132;50.864;5.176;2023-07-28T04:16:48;7.55;;;5.00;;
19940;SDS011;10132;50.864;5.176;2023-07-28T04:18:50;5.93;;;5.32;;
19940;SDS011;10132;50.864;5.176;2023-07-28T04:20:52;5.88;;;4.53;;
19940;SDS011;10132;50.864;5.176;2023-07-28T04:22:54;4.75;;;4.25;;
19940;SDS011;10132;50.864;5.176;2023-07-28T04:24:56;5.50;;;4.30;;
19940;SDS011;10132;50.864;5.176;2023-07-28T04:26:59;4.60;;;4.03;;
19940;SDS011;10132;50.864;5.176;2023-07-28T04:29:01;6.40;;;4.38;;
19940;SDS011;10132;50.864;5.176;2023-07-28T04:31:03;9.05;;;4.35;;
19940;SDS011;10132;50.864;5.176;2023-07-28T04:33:06;8.07;;;4.55;;
19940;SDS011;10132;50.864;5.176;2023-07-28T04:35:07;7.55;;;4.30;;
19940;SDS011;10132;50.864;5.176;2023-07-28T04:37:09;6.85;;;5.20;;
19940;SDS011;10132;50.864;5.176;2023-07-28T04:39:11;5.30;;;4.80;;
19940;SDS011;10132;50.864;5.176;2023-07-28T04:41:13;7.95;;;4.15;;
19940;SDS011;10132;50.864;5.176;2023-07-28T04:43:16;8.57;;;4.50;;
19940;SDS011;10132;50.864;5.176;2023-07-28T04:45:17;5.30;;;4.30;;
19940;SDS011;10132;50.864;5.176;2023-07-28T04:47:19;6.25;;;4.30;;
19940;SDS011;10132;50.864;5.176;2023-07-28T04:49:20;4.90;;;4.28;;
19940;SDS011;10132;50.864;5.176;2023-07-28T04:51:22;7.78;;;4.13;;
19940;SDS011;10132;50.864;5.176;2023-07-28T04:53:25;7.05;;;4.28;;
19940;SDS011;10132;50.864;5.176;2023-07-28T04:55:26;5.40;;;4.20;;
19940;SDS011;10132;50.864;5.176;2023-07-28T04:57:28;6.10;;;4.10;;
19940;SDS011;10132;50.864;5.176;2023-07-28T04:59:32;8.65;;;4.38;;
19940;SDS011;10132;50.864;5.176;2023-07-28T05:01:34;6.28;;;4.30;;
19940;SDS011;10132;50.864;5.176;2023-07-28T05:03:36;7.05;;;4.20;;
19940;SDS011;10132;50.864;5.176;2023-07-28T05:05:38;5.95;;;4.10;;
19940;SDS011;10132;50.864;5.176;2023-07-28T05:07:44;5.97;;;3.90;;
19940;SDS011;10132;50.864;5.176;2023-07-28T05:09:46;4.22;;;3.70;;
19940;SDS011;10132;50.864;5.176;2023-07-28T05:11:48;5.82;;;3.80;;
19940;SDS011;10132;50.864;5.176;2023-07-28T05:13:50;6.57;;;3.70;;
19940;SDS011;10132;50.864;5.176;2023-07-28T05:15:54;4.90;;;3.42;;
19940;SDS011;10132;50.864;5.176;2023-07-28T05:17:56;7.93;;;3.83;;
19940;SDS011;10132;50.864;5.176;2023-07-28T05:19:58;7.20;;;3.38;;
19940;SDS011;10132;50.864;5.176;2023-07-28T05:22:00;4.43;;;3.38;;
19940;SDS011;10132;50.864;5.176;2023-07-28T05:24:03;4.28;;;3.22;;
19940;SDS011;10132;50.864;5.176;2023-07-28T05:26:05;6.55;;;3.38;;
19940;SDS011;10132;50.864;5.176;2023-07-28T05:28:07;5.97;;;2.95;;
19940;SDS011;10132;50.864;5.176;2023-07-28T05:30:09;4.68;;;3.60;;
19940;SDS011;10132;50.864;5.176;2023-07-28T05:32:12;5.20;;;3.25;;
19940;SDS011;10132;50.864;5.176;2023-07-28T05:34:14;4.78;;;2.88;;
19940;SDS011;10132;50.864;5.176;2023-07-28T05:36:16;5.55;;;2.90;;
19940;SDS011;10132;50.864;5.176;2023-07-28T05:38:18;3.97;;;2.80;;
19940;SDS011;10132;50.864;5.176;2023-07-28T05:40:20;4.50;;;3.03;;
19940;SDS011;10132;50.864;5.176;2023-07-28T05:42:22;6.30;;;2.70;;
19940;SDS011;10132;50.864;5.176;2023-07-28T05:44:24;3.90;;;2.63;;
19940;SDS011;10132;50.864;5.176;2023-07-28T05:46:26;3.45;;;2.67;;
19940;SDS011;10132;50.864;5.176;2023-07-28T05:48:29;2.75;;;2.55;;
19940;SDS011;10132;50.864;5.176;2023-07-28T05:50:31;6.13;;;3.05;;
19940;SDS011;10132;50.864;5.176;2023-07-28T05:52:33;2.92;;;2.70;;
19940;SDS011;10132;50.864;5.176;2023-07-28T05:54:35;3.72;;;2.42;;
19940;SDS011;10132;50.864;5.176;2023-07-28T05:56:37;3.65;;;2.72;;
19940;SDS011;10132;50.864;5.176;2023-07-28T05:58:39;3.53;;;2.55;;
19940;SDS011;10132;50.864;5.176;2023-07-28T06:00:42;4.75;;;2.47;;
19940;SDS011;10132;50.864;5.176;2023-07-28T06:02:44;5.10;;;2.50;;
19940;SDS011;10132;50.864;5.176;2023-07-28T06:04:47;5.93;;;2.60;;
19940;SDS011;10132;50.864;5.176;2023-07-28T06:06:49;3.90;;;2.53;;
19940;SDS011;10132;50.864;5.176;2023-07-28T06:08:52;4.80;;;2.20;;
19940;SDS011;10132;50.864;5.176;2023-07-28T06:10:54;3.00;;;2.13;;
19940;SDS011;10132;50.864;5.176;2023-07-28T06:12:56;3.85;;;2.15;;
19940;SDS011;10132;50.864;5.176;2023-07-28T06:14:57;2.38;;;2.10;;
19940;SDS011;10132;50.864;5.176;2023-07-28T06:16:59;2.78;;;1.88;;
19940;SDS011;10132;50.864;5.176;2023-07-28T06:19:00;2.47;;;2.00;;
19940;SDS011;10132;50.864;5.176;2023-07-28T06:21:03;1.95;;;1.80;;
19940;SDS011;10132;50.864;5.176;2023-07-28T06:23:05;3.97;;;1.50;;
19940;SDS011;10132;50.864;5.176;2023-07-28T06:25:07;3.35;;;1.58;;
19940;SDS011;10132;50.864;5.176;2023-07-28T06:27:10;4.65;;;1.70;;
19940;SDS011;10132;50.864;5.176;2023-07-28T06:29:12;2.05;;;1.42;;
19940;SDS011;10132;50.864;5.176;2023-07-28T06:31:13;3.97;;;1.63;;
19940;SDS011;10132;50.864;5.176;2023-07-28T06:33:15;4.57;;;1.45;;
19940;SDS011;10132;50.864;5.176;2023-07-28T06:35:17;3.35;;;1.30;;
19940;SDS011;10132;50.864;5.176;2023-07-28T06:37:20;2.70;;;1.40;;
19940;SDS011;10132;50.864;5.176;2023-07-28T06:39:23;5.22;;;1.48;;
19940;SDS011;10132;50.864;5.176;2023-07-28T06:41:25;3.97;;;1.52;;
19940;SDS011;10132;50.864;5.176;2023-07-28T06:43:29;2.38;;;1.35;;
19940;SDS011;10132;50.864;5.176;2023-07-28T06:45:31;1.17;;;1.13;;
19940;SDS011;10132;50.864;5.176;2023-07-28T06:47:33;2.88;;;1.10;;
19940;SDS011;10132;50.864;5.176;2023-07-28T06:49:35;2.42;;;1.20;;
19940;SDS011;10132;50.864;5.176;2023-07-28T06:51:37;2.33;;;1.25;;
19940;SDS011;10132;50.864;5.176;2023-07-28T06:53:40;3.08;;;1.20;;
19940;SDS011;10132;50.864;5.176;2023-07-28T06:55:42;2.05;;;1.30;;
19940;SDS011;10132;50.864;5.176;2023-07-28T06:57:45;2.50;;;1.50;;
19940;SDS011;10132;50.864;5.176;2023-07-28T06:59:47;1.83;;;1.33;;
19940;SDS011;10132;50.864;5.176;2023-07-28T07:01:49;1.73;;;1.63;;
19940;SDS011;10132;50.864;5.176;2023-07-28T07:03:51;1.77;;;1.50;;
19940;SDS011;10132;50.864;5.176;2023-07-28T07:05:53;1.45;;;1.30;;
19940;SDS011;10132;50.864;5.176;2023-07-28T07:07:55;1.67;;;1.58;;
19940;SDS011;10132;50.864;5.176;2023-07-28T07:09:58;4.70;;;1.90;;
19940;SDS011;10132;50.864;5.176;2023-07-28T07:12:00;1.52;;;1.30;;
19940;SDS011;10132;50.864;5.176;2023-07-28T07:14:02;3.08;;;1.70;;
19940;SDS011;10132;50.864;5.176;2023-07-28T07:16:05;2.40;;;1.48;;
19940;SDS011;10132;50.864;5.176;2023-07-28T07:18:14;2.88;;;1.50;;
19940;SDS011;10132;50.864;5.176;2023-07-28T07:20:16;1.73;;;1.58;;
19940;SDS011;10132;50.864;5.176;2023-07-28T07:22:18;2.20;;;1.70;;
19940;SDS011;10132;50.864;5.176;2023-07-28T07:24:20;4.40;;;1.40;;
19940;SDS011;10132;50.864;5.176;2023-07-28T07:26:23;3.10;;;1.60;;
19940;SDS011;10132;50.864;5.176;2023-07-28T07:28:24;2.90;;;1.60;;
19940;SDS011;10132;50.864;5.176;2023-07-28T07:30:27;1.98;;;1.40;;
19940;SDS011;10132;50.864;5.176;2023-07-28T07:32:28;1.50;;;1.40;;
19940;SDS011;10132;50.864;5.176;2023-07-28T07:34:30;1.70;;;1.60;;
19940;SDS011;10132;50.864;5.176;2023-07-28T07:36:33;3.50;;;1.60;;
19940;SDS011;10132;50.864;5.176;2023-07-28T07:38:35;1.92;;;1.40;;
19940;SDS011;10132;50.864;5.176;2023-07-28T07:40:37;1.45;;;1.20;;
19940;SDS011;10132;50.864;5.176;2023-07-28T07:42:45;3.15;;;1.63;;
19940;SDS011;10132;50.864;5.176;2023-07-28T07:44:47;3.22;;;1.65;;
19940;SDS011;10132;50.864;5.176;2023-07-28T07:46:49;1.67;;;1.55;;
19940;SDS011;10132;50.864;5.176;2023-07-28T07:48:51;3.15;;;1.50;;
19940;SDS011;10132;50.864;5.176;2023-07-28T07:50:53;4.47;;;1.70;;
19940;SDS011;10132;50.864;5.176;2023-07-28T07:52:55;1.85;;;1.60;;
19940;SDS011;10132;50.864;5.176;2023-07-28T07:54:57;1.95;;;1.20;;
19940;SDS011;10132;50.864;5.176;2023-07-28T07:56:59;2.35;;;1.45;;
19940;SDS011;10132;50.864;5.176;2023-07-28T07:59:02;3.80;;;1.50;;
19940;SDS011;10132;50.864;5.176;2023-07-28T08:01:05;2.65;;;1.48;;
19940;SDS011;10132;50.864;5.176;2023-07-28T08:03:07;3.33;;;1.50;;
19940;SDS011;10132;50.864;5.176;2023-07-28T08:05:10;1.77;;;1.30;;
19940;SDS011;10132;50.864;5.176;2023-07-28T08:07:12;2.15;;;1.25;;
19940;SDS011;10132;50.864;5.176;2023-07-28T08:09:16;4.10;;;1.35;;
19940;SDS011;10132;50.864;5.176;2023-07-28T08:11:18;2.00;;;1.30;;
19940;SDS011;10132;50.864;5.176;2023-07-28T08:13:20;0.98;;;0.98;;
19940;SDS011;10132;50.864;5.176;2023-07-28T08:15:23;2.75;;;1.20;;
19940;SDS011;10132;50.864;5.176;2023-07-28T08:17:25;1.10;;;1.00;;
19940;SDS011;10132;50.864;5.176;2023-07-28T08:19:27;2.35;;;1.10;;
19940;SDS011;10132;50.864;5.176;2023-07-28T08:21:29;0.93;;;0.80;;
19940;SDS011;10132;50.864;5.176;2023-07-28T08:23:36;1.75;;;0.95;;
19940;SDS011;10132;50.864;5.176;2023-07-28T08:25:38;1.35;;;0.90;;
19940;SDS011;10132;50.864;5.176;2023-07-28T08:27:40;1.00;;;0.90;;
19940;SDS011;10132;50.864;5.176;2023-07-28T08:29:42;0.80;;;0.80;;
19940;SDS011;10132;50.864;5.176;2023-07-28T08:31:46;1.98;;;0.77;;
19940;SDS011;10132;50.864;5.176;2023-07-28T08:33:48;0.80;;;0.80;;
19940;SDS011;10132;50.864;5.176;2023-07-28T08:35:49;1.08;;;1.00;;
19940;SDS011;10132;50.864;5.176;2023-07-28T08:37:51;2.88;;;0.85;;
19940;SDS011;10132;50.864;5.176;2023-07-28T08:39:53;0.88;;;0.88;;
19940;SDS011;10132;50.864;5.176;2023-07-28T08:41:58;1.00;;;0.90;;
19940;SDS011;10132;50.864;5.176;2023-07-28T08:44:02;4.63;;;0.93;;
19940;SDS011;10132;50.864;5.176;2023-07-28T08:46:04;1.23;;;0.80;;
19940;SDS011;10132;50.864;5.176;2023-07-28T08:48:07;1.33;;;1.05;;
19940;SDS011;10132;50.864;5.176;2023-07-28T08:50:09;1.08;;;0.93;;
19940;SDS011;10132;50.864;5.176;2023-07-28T08:52:13;0.82;;;0.82;;
19940;SDS011;10132;50.864;5.176;2023-07-28T08:54:17;1.77;;;0.90;;
19940;SDS011;10132;50.864;5.176;2023-07-28T08:56:18;1.98;;;1.00;;
19940;SDS011;10132;50.864;5.176;2023-07-28T08:58:22;0.80;;;0.80;;
19940;SDS011;10132;50.864;5.176;2023-07-28T09:00:24;1.10;;;1.10;;
19940;SDS011;10132;50.864;5.176;2023-07-28T09:02:28;1.20;;;1.10;;
19940;SDS011;10132;50.864;5.176;2023-07-28T09:04:32;4.32;;;1.20;;
19940;SDS011;10132;50.864;5.176;2023-07-28T09:06:34;1.23;;;1.13;;
19940;SDS011;10132;50.864;5.176;2023-07-28T09:08:36;1.45;;;1.00;;
19940;SDS011;10132;50.864;5.176;2023-07-28T09:10:42;0.90;;;0.90;;
19940;SDS011;10132;50.864;5.176;2023-07-28T09:12:46;2.78;;;0.90;;
19940;SDS011;10132;50.864;5.176;2023-07-28T09:14:49;1.45;;;1.00;;
19940;SDS011;10132;50.864;5.176;2023-07-28T09:16:59;1.80;;;0.90;;
19940;SDS011;10132;50.864;5.176;2023-07-28T09:19:08;2.40;;;0.95;;
19940;SDS011;10132;50.864;5.176;2023-07-28T09:21:17;0.65;;;0.65;;
19940;SDS011;10132;50.864;5.176;2023-07-28T09:23:27;0.75;;;0.73;;
19940;SDS011;10132;50.864;5.176;2023-07-28T09:25:29;0.60;;;0.60;;
19940;SDS011;10132;50.864;5.176;2023-07-28T09:27:32;0.60;;;0.60;;
19940;SDS011;10132;50.864;5.176;2023-07-28T09:29:34;0.98;;;0.60;;
19940;SDS011;10132;50.864;5.176;2023-07-28T09:31:36;0.80;;;0.70;;
19940;SDS011;10132;50.864;5.176;2023-07-28T09:33:38;0.85;;;0.65;;
19940;SDS011;10132;50.864;5.176;2023-07-28T09:35:47;0.60;;;0.60;;
19940;SDS011;10132;50.864;5.176;2023-07-28T09:37:51;0.85;;;0.73;;
19940;SDS011;10132;50.864;5.176;2023-07-28T09:39:55;0.88;;;0.88;;
19940;SDS011;10132;50.864;5.176;2023-07-28T09:41:56;2.15;;;0.77;;
19940;SDS011;10132;50.864;5.176;2023-07-28T09:44:00;2.15;;;0.70;;
19940;SDS011;10132;50.864;5.176;2023-07-28T09:46:03;0.73;;;0.73;;
19940;SDS011;10132;50.864;5.176;2023-07-28T09:48:06;1.58;;;0.90;;
19940;SDS011;10132;50.864;5.176;2023-07-28T09:50:10;0.60;;;0.60;;
19940;SDS011;10132;50.864;5.176;2023-07-28T09:52:16;1.25;;;0.80;;
19940;SDS011;10132;50.864;5.176;2023-07-28T09:54:23;0.95;;;0.80;;
19940;SDS011;10132;50.864;5.176;2023-07-28T09:56:29;0.93;;;0.80;;
19940;SDS011;10132;50.864;5.176;2023-07-28T09:58:31;2.60;;;0.70;;
19940;SDS011;10132;50.864;5.176;2023-07-28T10:00:39;1.20;;;0.80;;
19940;SDS011;10132;50.864;5.176;2023-07-28T10:02:42;1.92;;;0.90;;
19940;SDS011;10132;50.864;5.176;2023-07-28T10:04:45;0.85;;;0.80;;
19940;SDS011;10132;50.864;5.176;2023-07-28T10:06:47;1.05;;;0.80;;
19940;SDS011;10132;50.864;5.176;2023-07-28T10:08:50;1.55;;;0.90;;
19940;SDS011;10132;50.864;5.176;2023-07-28T10:10:54;1.02;;;0.90;;
19940;SDS011;10132;50.864;5.176;2023-07-28T10:12:57;0.70;;;0.70;;
19940;SDS011;10132;50.864;5.176;2023-07-28T10:15:00;1.05;;;0.80;;
19940;SDS011;10132;50.864;5.176;2023-07-28T10:17:05;2.53;;;1.02;;
19940;SDS011;10132;50.864;5.176;2023-07-28T10:19:07;1.75;;;0.98;;
19940;SDS011;10132;50.864;5.176;2023-07-28T10:21:10;1.42;;;0.90;;
19940;SDS011;10132;50.864;5.176;2023-07-28T10:23:17;1.50;;;1.20;;
19940;SDS011;10132;50.864;5.176;2023-07-28T10:25:22;2.45;;;1.05;;
19940;SDS011;10132;50.864;5.176;2023-07-28T10:27:31;1.30;;;1.08;;
19940;SDS011;10132;50.864;5.176;2023-07-28T10:29:37;1.30;;;1.00;;
19940;SDS011;10132;50.864;5.176;2023-07-28T10:31:49;2.10;;;1.00;;
19940;SDS011;10132;50.864;5.176;2023-07-28T10:33:52;0.82;;;0.82;;
19940;SDS011;10132;50.864;5.176;2023-07-28T10:35:54;1.20;;;1.10;;
19940;SDS011;10132;50.864;5.176;2023-07-28T10:37:55;1.05;;;0.93;;
19940;SDS011;10132;50.864;5.176;2023-07-28T10:42:29;2.42;;;1.20;;
19940;SDS011;10132;50.864;5.176;2023-07-28T10:44:34;1.38;;;1.08;;
19940;SDS011;10132;50.864;5.176;2023-07-28T10:46:37;0.82;;;0.82;;
19940;SDS011;10132;50.864;5.176;2023-07-28T10:48:43;1.23;;;1.02;;
19940;SDS011;10132;50.864;5.176;2023-07-28T10:50:46;1.20;;;1.10;;
19940;SDS011;10132;50.864;5.176;2023-07-28T10:52:47;5.38;;;1.25;;
19940;SDS011;10132;50.864;5.176;2023-07-28T10:54:49;1.50;;;1.13;;
19940;SDS011;10132;50.864;5.176;2023-07-28T10:56:51;2.22;;;1.25;;
19940;SDS011;10132;50.864;5.176;2023-07-28T10:58:57;2.13;;;1.25;;
19940;SDS011;10132;50.864;5.176;2023-07-28T11:01:00;1.58;;;1.30;;
19940;SDS011;10132;50.864;5.176;2023-07-28T11:03:02;1.70;;;1.60;;
19940;SDS011;10132;50.864;5.176;2023-07-28T11:05:05;1.60;;;1.50;;
19940;SDS011;10132;50.864;5.176;2023-07-28T11:07:11;1.85;;;1.58;;
19940;SDS011;10132;50.864;5.176;2023-07-28T11:09:13;1.55;;;1.42;;
19940;SDS011;10132;50.864;5.176;2023-07-28T11:11:17;3.20;;;1.52;;
19940;SDS011;10132;50.864;5.176;2023-07-28T11:13:19;1.38;;;1.25;;
19940;SDS011;10132;50.864;5.176;2023-07-28T11:15:24;1.70;;;1.40;;
19940;SDS011;10132;50.864;5.176;2023-07-28T11:17:26;2.75;;;1.52;;
19940;SDS011;10132;50.864;5.176;2023-07-28T11:19:28;2.00;;;1.60;;
19940;SDS011;10132;50.864;5.176;2023-07-28T11:21:29;2.78;;;1.90;;
19940;SDS011;10132;50.864;5.176;2023-07-28T11:23:31;1.85;;;1.50;;
19940;SDS011;10132;50.864;5.176;2023-07-28T11:25:33;2.15;;;1.60;;
19940;SDS011;10132;50.864;5.176;2023-07-28T11:27:36;1.75;;;1.50;;
19940;SDS011;10132;50.864;5.176;2023-07-28T11:29:38;1.42;;;1.33;;
19940;SDS011;10132;50.864;5.176;2023-07-28T11:31:43;2.00;;;1.15;;
19940;SDS011;10132;50.864;5.176;2023-07-28T11:33:45;1.40;;;1.30;;
19940;SDS011;10132;50.864;5.176;2023-07-28T11:35:47;1.27;;;1.17;;
19940;SDS011;10132;50.864;5.176;2023-07-28T11:37:50;1.40;;;1.30;;
19940;SDS011;10132;50.864;5.176;2023-07-28T11:39:53;3.15;;;1.48;;
19940;SDS011;10132;50.864;5.176;2023-07-28T11:41:57;1.52;;;1.25;;
19940;SDS011;10132;50.864;5.176;2023-07-28T11:43:59;2.00;;;1.15;;
19940;SDS011;10132;50.864;5.176;2023-07-28T11:46:03;1.35;;;1.20;;
19940;SDS011;10132;50.864;5.176;2023-07-28T11:48:06;1.60;;;1.50;;
19940;SDS011;10132;50.864;5.176;2023-07-28T11:50:09;1.30;;;1.20;;
19940;SDS011;10132;50.864;5.176;2023-07-28T11:52:11;1.30;;;1.20;;
19940;SDS011;10132;50.864;5.176;2023-07-28T11:54:13;1.13;;;1.00;;
19940;SDS011;10132;50.864;5.176;2023-07-28T11:56:15;2.42;;;0.93;;
19940;SDS011;10132;50.864;5.176;2023-07-28T11:58:17;0.98;;;0.98;;
19940;SDS011;10132;50.864;5.176;2023-07-28T12:00:29;1.77;;;0.80;;
19940;SDS011;10132;50.864;5.176;2023-07-28T12:02:31;0.90;;;0.90;;
19940;SDS011;10132;50.864;5.176;2023-07-28T12:04:37;1.00;;;1.00;;
19940;SDS011;10132;50.864;5.176;2023-07-28T12:09:05;1.70;;;1.20;;
19940;SDS011;10132;50.864;5.176;2023-07-28T12:11:11;1.27;;;1.17;;
19940;SDS011;10132;50.864;5.176;2023-07-28T12:13:15;1.33;;;1.00;;
19940;SDS011;10132;50.864;5.176;2023-07-28T12:15:20;1.77;;;0.90;;
19940;SDS011;10132;50.864;5.176;2023-07-28T12:17:22;0.80;;;0.80;;
19940;SDS011;10132;50.864;5.176;2023-07-28T12:19:27;1.33;;;0.90;;
19940;SDS011;10132;50.864;5.176;2023-07-28T12:21:30;0.80;;;0.80;;
19940;SDS011;10132;50.864;5.176;2023-07-28T12:23:32;0.85;;;0.70;;
19940;SDS011;10132;50.864;5.176;2023-07-28T12:25:35;0.90;;;0.90;;